sensor_id;sensor_type;location;lat;lon;timestamp;pressure;altitude;pressure_sealevel;temperature;humidity
75420;BME280;63998;52.488;13.428;2024-01-16T00:00:07;99740.63;;;0.57;67.12
75420;BME280;63998;52.488;13.428;2024-01-16T00:02:34;99744.78;;;0.53;67.52
75420;BME280;63998;52.488;13.428;2024-01-16T00:04:59;99754.03;;;0.48;67.98
75420;BME280;63998;52.488;13.428;2024-01-16T00:07:24;99753.94;;;0.45;68.64
75420;BME280;63998;52.488;13.428;2024-01-16T00:09:50;99749.59;;;0.43;68.99
75420;BME280;63998;52.488;13.428;2024-01-16T00:12:18;99751.09;;;0.34;69.07
75420;BME280;63998;52.488;13.428;2024-01-16T00:14:43;99754.25;;;0.24;69.67
75420;BME280;63998;52.488;13.428;2024-01-16T00:17:08;99753.16;;;0.16;70.61
75420;BME280;63998;52.488;13.428;2024-01-16T00:19:34;99755.56;;;0.10;72.52
75420;BME280;63998;52.488;13.428;2024-01-16T00:21:59;99754.78;;;0.14;72.52
75420;BME280;63998;52.488;13.428;2024-01-16T00:24:25;99755.69;;;0.16;73.41
75420;BME280;63998;52.488;13.428;2024-01-16T00:26:51;99758.22;;;0.15;73.54
75420;BME280;63998;52.488;13.428;2024-01-16T00:29:16;99765.75;;;0.10;74.62
75420;BME280;63998;52.488;13.428;2024-01-16T00:31:42;99769.13;;;0.09;74.59
75420;BME280;63998;52.488;13.428;2024-01-16T00:34:07;99773.47;;;0.12;75.44
75420;BME280;63998;52.488;13.428;2024-01-16T00:36:33;99774.06;;;0.03;75.94
75420;BME280;63998;52.488;13.428;2024-01-16T00:38:58;99781.56;;;-0.03;76.30
75420;BME280;63998;52.488;13.428;2024-01-16T00:41:23;99787.56;;;-0.01;76.70
75420;BME280;63998;52.488;13.428;2024-01-16T00:43:49;99794.47;;;0.03;76.85
75420;BME280;63998;52.488;13.428;2024-01-16T00:46:14;99789.38;;;0.03;76.92
75420;BME280;63998;52.488;13.428;2024-01-16T00:48:39;99799.66;;;0.06;76.87
75420;BME280;63998;52.488;13.428;2024-01-16T00:51:05;99811.41;;;0.01;77.38
75420;BME280;63998;52.488;13.428;2024-01-16T00:53:30;99806.97;;;-0.06;77.76
75420;BME280;63998;52.488;13.428;2024-01-16T00:55:55;99819.75;;;-0.06;77.90
75420;BME280;63998;52.488;13.428;2024-01-16T00:58:24;99821.38;;;-0.08;78.56
75420;BME280;63998;52.488;13.428;2024-01-16T01:00:49;99829.84;;;-0.09;79.16
75420;BME280;63998;52.488;13.428;2024-01-16T01:03:14;99838.06;;;-0.19;79.22
75420;BME280;63998;52.488;13.428;2024-01-16T01:05:40;99853.84;;;-0.31;79.59
75420;BME280;63998;52.488;13.428;2024-01-16T01:08:06;99846.84;;;-0.38;79.49
75420;BME280;63998;52.488;13.428;2024-01-16T01:10:32;99848.53;;;-0.39;80.02
75420;BME280;63998;52.488;13.428;2024-01-16T01:12:57;99857.91;;;-0.38;80.46
75420;BME280;63998;52.488;13.428;2024-01-16T01:15:22;99857.06;;;-0.38;80.77
75420;BME280;63998;52.488;13.428;2024-01-16T01:17:48;99859.34;;;-0.46;80.65
75420;BME280;63998;52.488;13.428;2024-01-16T01:20:15;99863.34;;;-0.54;80.93
75420;BME280;63998;52.488;13.428;2024-01-16T01:22:41;99860.28;;;-0.69;80.46
75420;BME280;63998;52.488;13.428;2024-01-16T01:25:07;99867.72;;;-0.77;80.08
75420;BME280;63998;52.488;13.428;2024-01-16T01:27:32;99859.09;;;-0.80;80.31
75420;BME280;63998;52.488;13.428;2024-01-16T01:29:57;99880.09;;;-0.87;80.37
75420;BME280;63998;52.488;13.428;2024-01-16T01:32:23;99878.16;;;-0.94;79.98
75420;BME280;63998;52.488;13.428;2024-01-16T01:34:48;99874.78;;;-0.93;80.25
75420;BME280;63998;52.488;13.428;2024-01-16T01:37:14;99869.69;;;-0.93;80.26
75420;BME280;63998;52.488;13.428;2024-01-16T01:39:39;99877.38;;;-0.92;80.42
75420;BME280;63998;52.488;13.428;2024-01-16T01:42:05;99869.94;;;-0.86;80.55
75420;BME280;63998;52.488;13.428;2024-01-16T01:44:30;99866.72;;;-0.80;80.76
75420;BME280;63998;52.488;13.428;2024-01-16T01:46:56;99866.63;;;-0.83;81.14
75420;BME280;63998;52.488;13.428;2024-01-16T01:49:22;99870.91;;;-0.82;81.65
75420;BME280;63998;52.488;13.428;2024-01-16T01:51:48;99869.78;;;-0.90;81.54
75420;BME280;63998;52.488;13.428;2024-01-16T01:54:15;99876.41;;;-0.95;81.46
75420;BME280;63998;52.488;13.428;2024-01-16T01:56:46;99881.31;;;-1.01;81.27
75420;BME280;63998;52.488;13.428;2024-01-16T01:59:14;99887.97;;;-1.05;81.76
75420;BME280;63998;52.488;13.428;2024-01-16T02:01:40;99874.25;;;-1.09;81.59
75420;BME280;63998;52.488;13.428;2024-01-16T02:04:06;99884.69;;;-1.02;81.41
75420;BME280;63998;52.488;13.428;2024-01-16T02:06:32;99889.03;;;-0.98;81.68
75420;BME280;63998;52.488;13.428;2024-01-16T02:08:58;99883.19;;;-0.96;81.87
75420;BME280;63998;52.488;13.428;2024-01-16T02:11:24;99892.56;;;-0.95;81.67
75420;BME280;63998;52.488;13.428;2024-01-16T02:13:49;99886.59;;;-0.95;81.75
75420;BME280;63998;52.488;13.428;2024-01-16T02:16:19;99890.84;;;-0.96;81.88
75420;BME280;63998;52.488;13.428;2024-01-16T02:18:45;99902.75;;;-0.95;81.37
75420;BME280;63998;52.488;13.428;2024-01-16T02:21:11;99901.91;;;-0.95;82.06
75420;BME280;63998;52.488;13.428;2024-01-16T02:23:37;99905.38;;;-0.93;81.43
75420;BME280;63998;52.488;13.428;2024-01-16T02:26:03;99913.94;;;-0.91;81.78
75420;BME280;63998;52.488;13.428;2024-01-16T02:28:29;99914.56;;;-0.97;81.51
75420;BME280;63998;52.488;13.428;2024-01-16T02:30:54;99928.31;;;-0.93;81.41
75420;BME280;63998;52.488;13.428;2024-01-16T02:33:19;99929.97;;;-0.94;81.91
75420;BME280;63998;52.488;13.428;2024-01-16T02:35:45;99925.88;;;-0.90;81.13
75420;BME280;63998;52.488;13.428;2024-01-16T02:38:10;99929.34;;;-0.88;81.60
75420;BME280;63998;52.488;13.428;2024-01-16T02:40:35;99931.88;;;-0.88;81.51
75420;BME280;63998;52.488;13.428;2024-01-16T02:43:01;99932.69;;;-0.89;81.43
75420;BME280;63998;52.488;13.428;2024-01-16T02:45:26;99935.34;;;-0.86;81.36
75420;BME280;63998;52.488;13.428;2024-01-16T02:47:52;99936.25;;;-0.84;81.01
75420;BME280;63998;52.488;13.428;2024-01-16T02:50:17;99941.28;;;-0.87;80.63
75420;BME280;63998;52.488;13.428;2024-01-16T02:52:42;99946.78;;;-0.99;80.85
75420;BME280;63998;52.488;13.428;2024-01-16T02:55:08;99950.94;;;-1.02;80.74
75420;BME280;63998;52.488;13.428;2024-01-16T02:57:33;99965.97;;;-1.09;80.53
75420;BME280;63998;52.488;13.428;2024-01-16T02:59:58;99956.09;;;-1.23;80.45
75420;BME280;63998;52.488;13.428;2024-01-16T03:02:24;99970.38;;;-1.28;81.11
75420;BME280;63998;52.488;13.428;2024-01-16T03:04:49;99973.47;;;-1.37;81.30
75420;BME280;63998;52.488;13.428;2024-01-16T03:07:15;99980.25;;;-1.36;81.45
75420;BME280;63998;52.488;13.428;2024-01-16T03:09:40;99978.44;;;-1.40;81.85
75420;BME280;63998;52.488;13.428;2024-01-16T03:12:06;99975.66;;;-1.46;82.74
75420;BME280;63998;52.488;13.428;2024-01-16T03:14:31;99986.31;;;-1.56;82.14
75420;BME280;63998;52.488;13.428;2024-01-16T03:17:01;99993.00;;;-1.58;82.30
75420;BME280;63998;52.488;13.428;2024-01-16T03:19:26;100001.97;;;-1.68;82.24
75420;BME280;63998;52.488;13.428;2024-01-16T03:21:52;100002.91;;;-1.66;82.44
75420;BME280;63998;52.488;13.428;2024-01-16T03:24:17;99997.81;;;-1.66;82.50
75420;BME280;63998;52.488;13.428;2024-01-16T03:26:42;99997.06;;;-1.63;82.35
75420;BME280;63998;52.488;13.428;2024-01-16T03:29:10;100003.19;;;-1.58;82.40
75420;BME280;63998;52.488;13.428;2024-01-16T03:31:36;100025.63;;;-1.48;82.47
75420;BME280;63998;52.488;13.428;2024-01-16T03:34:01;100028.31;;;-1.45;82.88
75420;BME280;63998;52.488;13.428;2024-01-16T03:36:27;100029.38;;;-1.40;82.89
75420;BME280;63998;52.488;13.428;2024-01-16T03:38:52;100014.09;;;-1.40;82.78
75420;BME280;63998;52.488;13.428;2024-01-16T03:41:18;100035.47;;;-1.36;83.01
75420;BME280;63998;52.488;13.428;2024-01-16T03:43:43;100033.94;;;-1.31;83.02
75420;BME280;63998;52.488;13.428;2024-01-16T03:46:12;100037.41;;;-1.29;83.04
75420;BME280;63998;52.488;13.428;2024-01-16T03:48:38;100045.13;;;-1.28;82.88
75420;BME280;63998;52.488;13.428;2024-01-16T03:51:03;100055.53;;;-1.22;82.92
75420;BME280;63998;52.488;13.428;2024-01-16T03:53:29;100056.75;;;-1.12;82.92
75420;BME280;63998;52.488;13.428;2024-01-16T03:55:54;100077.22;;;-1.09;83.09
75420;BME280;63998;52.488;13.428;2024-01-16T03:58:20;100069.03;;;-1.02;82.98
75420;BME280;63998;52.488;13.428;2024-01-16T04:00:45;100073.25;;;-1.02;82.66
75420;BME280;63998;52.488;13.428;2024-01-16T04:03:11;100068.03;;;-1.05;82.98
75420;BME280;63998;52.488;13.428;2024-01-16T04:05:38;100074.19;;;-1.00;83.05
75420;BME280;63998;52.488;13.428;2024-01-16T04:08:03;100072.44;;;-1.01;83.48
75420;BME280;63998;52.488;13.428;2024-01-16T04:10:28;100073.25;;;-1.02;83.30
75420;BME280;63998;52.488;13.428;2024-01-16T04:12:54;100067.56;;;-0.95;83.08
75420;BME280;63998;52.488;13.428;2024-01-16T04:15:19;100057.34;;;-0.95;83.01
75420;BME280;63998;52.488;13.428;2024-01-16T04:17:44;100064.25;;;-0.93;82.54
75420;BME280;63998;52.488;13.428;2024-01-16T04:20:10;100057.53;;;-0.91;82.32
75420;BME280;63998;52.488;13.428;2024-01-16T04:22:38;100070.22;;;-0.92;82.01
75420;BME280;63998;52.488;13.428;2024-01-16T04:25:04;100090.28;;;-1.01;82.19
75420;BME280;63998;52.488;13.428;2024-01-16T04:27:31;100085.06;;;-1.04;82.34
75420;BME280;63998;52.488;13.428;2024-01-16T04:29:57;100083.66;;;-0.96;82.38
75420;BME280;63998;52.488;13.428;2024-01-16T04:32:22;100088.88;;;-0.93;82.46
75420;BME280;63998;52.488;13.428;2024-01-16T04:34:47;100082.16;;;-0.91;82.45
75420;BME280;63998;52.488;13.428;2024-01-16T04:37:12;100083.16;;;-0.88;82.80
75420;BME280;63998;52.488;13.428;2024-01-16T04:39:38;100096.78;;;-0.86;82.42
75420;BME280;63998;52.488;13.428;2024-01-16T04:42:03;100097.78;;;-0.82;82.61
75420;BME280;63998;52.488;13.428;2024-01-16T04:44:32;100092.75;;;-0.81;82.35
75420;BME280;63998;52.488;13.428;2024-01-16T04:46:57;100096.97;;;-0.81;82.16
75420;BME280;63998;52.488;13.428;2024-01-16T04:49:23;100091.06;;;-0.80;82.41
75420;BME280;63998;52.488;13.428;2024-01-16T04:51:49;100095.41;;;-0.78;82.20
75420;BME280;63998;52.488;13.428;2024-01-16T04:54:14;100091.25;;;-0.74;82.32
75420;BME280;63998;52.488;13.428;2024-01-16T04:56:39;100092.06;;;-0.77;82.61
75420;BME280;63998;52.488;13.428;2024-01-16T04:59:07;100098.03;;;-0.76;81.97
75420;BME280;63998;52.488;13.428;2024-01-16T05:01:33;100098.03;;;-0.76;82.01
75420;BME280;63998;52.488;13.428;2024-01-16T05:03:58;100096.97;;;-0.81;81.75
75420;BME280;63998;52.488;13.428;2024-01-16T05:06:23;100094.53;;;-0.78;81.76
75420;BME280;63998;52.488;13.428;2024-01-16T05:08:49;100091.19;;;-0.77;81.26
75420;BME280;63998;52.488;13.428;2024-01-16T05:11:14;100094.75;;;-0.72;81.79
75420;BME280;63998;52.488;13.428;2024-01-16T05:13:39;100106.56;;;-0.74;81.92
75420;BME280;63998;52.488;13.428;2024-01-16T05:16:05;100104.63;;;-0.81;81.75
75420;BME280;63998;52.488;13.428;2024-01-16T05:18:31;100109.84;;;-0.78;81.76
75420;BME280;63998;52.488;13.428;2024-01-16T05:20:58;100109.72;;;-0.81;81.93
75420;BME280;63998;52.488;13.428;2024-01-16T05:23:23;100114.59;;;-0.87;81.79
75420;BME280;63998;52.488;13.428;2024-01-16T05:25:51;100105.22;;;-0.88;81.58
75420;BME280;63998;52.488;13.428;2024-01-16T05:28:16;100105.91;;;-0.92;81.38
75420;BME280;63998;52.488;13.428;2024-01-16T05:30:42;100115.97;;;-0.95;81.76
75420;BME280;63998;52.488;13.428;2024-01-16T05:33:08;100116.72;;;-0.98;81.48
75420;BME280;63998;52.488;13.428;2024-01-16T05:35:33;100121.66;;;-1.02;81.70
75420;BME280;63998;52.488;13.428;2024-01-16T05:37:58;100122.47;;;-1.03;81.11
75420;BME280;63998;52.488;13.428;2024-01-16T05:40:24;100121.53;;;-1.05;81.38
75420;BME280;63998;52.488;13.428;2024-01-16T05:42:50;100123.63;;;-1.18;82.01
75420;BME280;63998;52.488;13.428;2024-01-16T05:45:16;100137.03;;;-1.22;82.56
75420;BME280;63998;52.488;13.428;2024-01-16T05:47:41;100131.13;;;-1.21;82.83
75420;BME280;63998;52.488;13.428;2024-01-16T05:50:07;100143.41;;;-1.11;83.09
75420;BME280;63998;52.488;13.428;2024-01-16T05:52:32;100138.38;;;-1.09;83.32
75420;BME280;63998;52.488;13.428;2024-01-16T05:55:00;100145.97;;;-1.11;83.28
75420;BME280;63998;52.488;13.428;2024-01-16T05:57:26;100147.47;;;-1.16;83.31
75420;BME280;63998;52.488;13.428;2024-01-16T05:59:51;100150.72;;;-1.20;83.41
75420;BME280;63998;52.488;13.428;2024-01-16T06:02:17;100153.97;;;-1.24;83.65
75420;BME280;63998;52.488;13.428;2024-01-16T06:04:42;100161.47;;;-1.27;84.05
75420;BME280;63998;52.488;13.428;2024-01-16T06:07:07;100165.50;;;-1.32;83.69
75420;BME280;63998;52.488;13.428;2024-01-16T06:09:33;100173.03;;;-1.35;83.67
75420;BME280;63998;52.488;13.428;2024-01-16T06:11:59;100175.34;;;-1.41;83.85
75420;BME280;63998;52.488;13.428;2024-01-16T06:14:24;100173.72;;;-1.39;84.05
75420;BME280;63998;52.488;13.428;2024-01-16T06:16:50;100175.56;;;-1.35;84.25
75420;BME280;63998;52.488;13.428;2024-01-16T06:19:16;100178.44;;;-1.27;83.97
75420;BME280;63998;52.488;13.428;2024-01-16T06:21:41;100177.81;;;-1.22;83.99
75420;BME280;63998;52.488;13.428;2024-01-16T06:24:07;100186.69;;;-1.12;83.38
75420;BME280;63998;52.488;13.428;2024-01-16T06:26:32;100182.41;;;-1.13;83.75
75420;BME280;63998;52.488;13.428;2024-01-16T06:28:58;100190.13;;;-1.12;83.30
75420;BME280;63998;52.488;13.428;2024-01-16T06:31:23;100191.81;;;-1.11;83.23
75420;BME280;63998;52.488;13.428;2024-01-16T06:33:51;100193.56;;;-1.10;82.79
75420;BME280;63998;52.488;13.428;2024-01-16T06:36:16;100193.22;;;-1.19;82.76
75420;BME280;63998;52.488;13.428;2024-01-16T06:38:42;100196.41;;;-1.24;81.89
75420;BME280;63998;52.488;13.428;2024-01-16T06:41:07;100201.31;;;-1.29;82.40
75420;BME280;63998;52.488;13.428;2024-01-16T06:43:33;100201.97;;;-1.33;82.03
75420;BME280;63998;52.488;13.428;2024-01-16T06:45:58;100213.59;;;-1.39;81.91
75420;BME280;63998;52.488;13.428;2024-01-16T06:48:24;100218.69;;;-1.39;82.13
75420;BME280;63998;52.488;13.428;2024-01-16T06:50:50;100233.97;;;-1.39;82.24
75420;BME280;63998;52.488;13.428;2024-01-16T06:53:15;100228.03;;;-1.40;82.36
75420;BME280;63998;52.488;13.428;2024-01-16T06:55:41;100229.03;;;-1.36;82.79
75420;BME280;63998;52.488;13.428;2024-01-16T06:58:06;100227.59;;;-1.30;82.72
75420;BME280;63998;52.488;13.428;2024-01-16T07:00:31;100237.34;;;-1.20;82.99
75420;BME280;63998;52.488;13.428;2024-01-16T07:02:56;100233.97;;;-1.19;83.00
75420;BME280;63998;52.488;13.428;2024-01-16T07:05:22;100243.63;;;-1.12;82.77
75420;BME280;63998;52.488;13.428;2024-01-16T07:07:48;100251.22;;;-1.13;83.12
75420;BME280;63998;52.488;13.428;2024-01-16T07:10:13;100248.72;;;-1.12;82.97
75420;BME280;63998;52.488;13.428;2024-01-16T07:12:44;100246.19;;;-1.12;82.76
75420;BME280;63998;52.488;13.428;2024-01-16T07:15:09;100256.53;;;-1.07;83.11
75420;BME280;63998;52.488;13.428;2024-01-16T07:17:34;100258.53;;;-1.00;83.03
75420;BME280;63998;52.488;13.428;2024-01-16T07:20:00;100269.03;;;-0.92;83.52
75420;BME280;63998;52.488;13.428;2024-01-16T07:22:25;100265.66;;;-0.91;83.48
75420;BME280;63998;52.488;13.428;2024-01-16T07:24:52;100271.00;;;-0.85;82.61
75420;BME280;63998;52.488;13.428;2024-01-16T07:27:17;100272.88;;;-0.81;82.89
75420;BME280;63998;52.488;13.428;2024-01-16T07:29:42;100283.19;;;-0.78;82.53
75420;BME280;63998;52.488;13.428;2024-01-16T07:32:08;100274.75;;;-0.77;82.68
75420;BME280;63998;52.488;13.428;2024-01-16T07:34:36;100284.22;;;-0.73;82.88
75420;BME280;63998;52.488;13.428;2024-01-16T07:37:01;100283.31;;;-0.75;82.99
75420;BME280;63998;52.488;13.428;2024-01-16T07:39:26;100281.06;;;-0.67;82.49
75420;BME280;63998;52.488;13.428;2024-01-16T07:41:52;100278.69;;;-0.63;82.75
75420;BME280;63998;52.488;13.428;2024-01-16T07:44:17;100281.13;;;-0.66;82.56
75420;BME280;63998;52.488;13.428;2024-01-16T07:46:42;100283.81;;;-0.63;82.28
75420;BME280;63998;52.488;13.428;2024-01-16T07:49:07;100283.63;;;-0.67;82.20
75420;BME280;63998;52.488;13.428;2024-01-16T07:51:33;100278.69;;;-0.63;83.14
75420;BME280;63998;52.488;13.428;2024-01-16T07:54:09;100278.19;;;-0.54;83.01
75420;BME280;63998;52.488;13.428;2024-01-16T07:56:35;100296.91;;;-0.54;83.30
75420;BME280;63998;52.488;13.428;2024-01-16T07:59:01;100278.25;;;-0.53;83.32
75420;BME280;63998;52.488;13.428;2024-01-16T08:01:27;100294.47;;;-0.51;83.25
75420;BME280;63998;52.488;13.428;2024-01-16T08:03:54;100301.06;;;-0.56;83.08
75420;BME280;63998;52.488;13.428;2024-01-16T08:06:19;100306.31;;;-0.53;83.17
75420;BME280;63998;52.488;13.428;2024-01-16T08:08:44;100312.38;;;-0.49;83.25
75420;BME280;63998;52.488;13.428;2024-01-16T08:11:11;100316.63;;;-0.50;82.90
75420;BME280;63998;52.488;13.428;2024-01-16T08:13:36;100308.84;;;-0.53;83.31
75420;BME280;63998;52.488;13.428;2024-01-16T08:16:02;100312.28;;;-0.52;83.69
75420;BME280;63998;52.488;13.428;2024-01-16T08:18:27;100311.41;;;-0.53;83.50
75420;BME280;63998;52.488;13.428;2024-01-16T08:20:52;100318.13;;;-0.55;83.71
75420;BME280;63998;52.488;13.428;2024-01-16T08:23:17;100306.44;;;-0.50;83.27
75420;BME280;63998;52.488;13.428;2024-01-16T08:25:43;100316.97;;;-0.41;83.37
75420;BME280;63998;52.488;13.428;2024-01-16T08:28:09;100323.09;;;-0.36;83.62
75420;BME280;63998;52.488;13.428;2024-01-16T08:30:34;100325.56;;;-0.39;83.48
75420;BME280;63998;52.488;13.428;2024-01-16T08:33:00;100320.47;;;-0.39;83.67
75420;BME280;63998;52.488;13.428;2024-01-16T08:35:25;100325.78;;;-0.32;83.42
75420;BME280;63998;52.488;13.428;2024-01-16T08:37:50;100322.44;;;-0.31;83.30
75420;BME280;63998;52.488;13.428;2024-01-16T08:40:16;100325.56;;;-0.39;82.91
75420;BME280;63998;52.488;13.428;2024-01-16T08:42:41;100319.34;;;-0.45;82.69
75420;BME280;63998;52.488;13.428;2024-01-16T08:45:06;100325.78;;;-0.32;83.13
75420;BME280;63998;52.488;13.428;2024-01-16T08:47:32;100315.78;;;-0.28;82.71
75420;BME280;63998;52.488;13.428;2024-01-16T08:49:57;100331.81;;;-0.30;83.07
75420;BME280;63998;52.488;13.428;2024-01-16T08:52:23;100329.28;;;-0.30;83.43
75420;BME280;63998;52.488;13.428;2024-01-16T08:54:49;100342.72;;;-0.34;83.24
75420;BME280;63998;52.488;13.428;2024-01-16T08:57:14;100334.13;;;-0.37;83.38
75420;BME280;63998;52.488;13.428;2024-01-16T08:59:42;100341.84;;;-0.35;83.49
75420;BME280;63998;52.488;13.428;2024-01-16T09:02:07;100336.88;;;-0.32;83.46
75420;BME280;63998;52.488;13.428;2024-01-16T09:04:33;100336.75;;;-0.35;83.67
75420;BME280;63998;52.488;13.428;2024-01-16T09:06:59;100330.75;;;-0.36;84.04
75420;BME280;63998;52.488;13.428;2024-01-16T09:09:24;100339.75;;;-0.45;83.92
75420;BME280;63998;52.488;13.428;2024-01-16T09:11:50;100334.13;;;-0.37;83.71
75420;BME280;63998;52.488;13.428;2024-01-16T09:14:15;100341.91;;;-0.33;83.90
75420;BME280;63998;52.488;13.428;2024-01-16T09:16:40;100352.91;;;-0.34;84.19
75420;BME280;63998;52.488;13.428;2024-01-16T09:19:06;100350.63;;;-0.28;83.63
75420;BME280;63998;52.488;13.428;2024-01-16T09:21:31;100348.19;;;-0.25;84.12
75420;BME280;63998;52.488;13.428;2024-01-16T09:23:57;100345.06;;;-0.18;84.23
75420;BME280;63998;52.488;13.428;2024-01-16T09:26:22;100345.19;;;-0.15;84.00
75420;BME280;63998;52.488;13.428;2024-01-16T09:28:48;100346.13;;;-0.13;84.11
75420;BME280;63998;52.488;13.428;2024-01-16T09:31:14;100348.53;;;-0.16;83.58
75420;BME280;63998;52.488;13.428;2024-01-16T09:33:40;100358.63;;;-0.19;84.24
75420;BME280;63998;52.488;13.428;2024-01-16T09:36:05;100353.31;;;-0.25;84.56
75420;BME280;63998;52.488;13.428;2024-01-16T09:38:31;100360.81;;;-0.28;85.01
75420;BME280;63998;52.488;13.428;2024-01-16T09:40:56;100359.22;;;-0.26;85.09
75420;BME280;63998;52.488;13.428;2024-01-16T09:43:26;100352.78;;;-0.17;84.69
75420;BME280;63998;52.488;13.428;2024-01-16T09:45:55;100358.00;;;-0.14;85.13
75420;BME280;63998;52.488;13.428;2024-01-16T09:48:21;100358.97;;;-0.10;84.89
75420;BME280;63998;52.488;13.428;2024-01-16T09:50:47;100357.22;;;-0.11;84.70
75420;BME280;63998;52.488;13.428;2024-01-16T09:53:12;100359.56;;;-0.17;84.45
75420;BME280;63998;52.488;13.428;2024-01-16T09:55:38;100359.78;;;-0.11;84.52
75420;BME280;63998;52.488;13.428;2024-01-16T09:58:05;100356.13;;;-0.18;84.08
75420;BME280;63998;52.488;13.428;2024-01-16T10:00:31;100365.34;;;-0.21;84.20
75420;BME280;63998;52.488;13.428;2024-01-16T10:02:56;100363.84;;;-0.16;84.08
75420;BME280;63998;52.488;13.428;2024-01-16T10:05:24;100367.56;;;-0.08;84.08
75420;BME280;63998;52.488;13.428;2024-01-16T10:07:51;100367.56;;;-0.08;84.13
75420;BME280;63998;52.488;13.428;2024-01-16T10:10:16;100364.53;;;0.02;84.44
75420;BME280;63998;52.488;13.428;2024-01-16T10:12:43;100368.91;;;0.05;84.21
75420;BME280;63998;52.488;13.428;2024-01-16T10:15:09;100366.28;;;0.03;83.74
75420;BME280;63998;52.488;13.428;2024-01-16T10:17:39;100376.16;;;-0.06;83.63
75420;BME280;63998;52.488;13.428;2024-01-16T10:20:06;100372.91;;;-0.02;83.57
75420;BME280;63998;52.488;13.428;2024-01-16T10:22:32;100374.66;;;-0.01;83.76
75420;BME280;63998;52.488;13.428;2024-01-16T10:25:05;100369.88;;;0.08;84.12
75420;BME280;63998;52.488;13.428;2024-01-16T10:27:31;100372.22;;;0.24;83.92
75420;BME280;63998;52.488;13.428;2024-01-16T10:29:57;100372.53;;;0.33;84.06
75420;BME280;63998;52.488;13.428;2024-01-16T10:32:29;100373.56;;;0.39;84.02
75420;BME280;63998;52.488;13.428;2024-01-16T10:35:08;100370.91;;;0.35;83.89
75420;BME280;63998;52.488;13.428;2024-01-16T10:37:49;100376.69;;;0.54;83.53
75420;BME280;63998;52.488;13.428;2024-01-16T10:40:16;100375.50;;;0.68;82.85
75420;BME280;63998;52.488;13.428;2024-01-16T10:42:42;100377.13;;;0.66;82.93
75420;BME280;63998;52.488;13.428;2024-01-16T10:45:16;100382.91;;;0.60;82.48
75420;BME280;63998;52.488;13.428;2024-01-16T10:47:42;100379.09;;;0.73;82.46
75420;BME280;63998;52.488;13.428;2024-01-16T10:50:08;100379.47;;;0.60;81.83
75420;BME280;63998;52.488;13.428;2024-01-16T10:52:46;100382.09;;;0.63;82.37
75420;BME280;63998;52.488;13.428;2024-01-16T10:55:17;100380.47;;;0.65;82.59
75420;BME280;63998;52.488;13.428;2024-01-16T10:57:44;100373.19;;;0.76;82.66
75420;BME280;63998;52.488;13.428;2024-01-16T11:00:12;100367.22;;;0.75;81.84
75420;BME280;63998;52.488;13.428;2024-01-16T11:02:49;100361.66;;;0.87;82.03
75420;BME280;63998;52.488;13.428;2024-01-16T11:05:17;100361.00;;;0.92;81.66
75420;BME280;63998;52.488;13.428;2024-01-16T11:07:43;100350.13;;;0.98;81.40
75420;BME280;63998;52.488;13.428;2024-01-16T11:10:10;100351.09;;;1.01;80.89
75420;BME280;63998;52.488;13.428;2024-01-16T11:12:38;100347.53;;;0.96;80.86
75420;BME280;63998;52.488;13.428;2024-01-16T11:15:05;100354.16;;;0.91;80.43
75420;BME280;63998;52.488;13.428;2024-01-16T11:17:33;100360.03;;;0.89;80.38
75420;BME280;63998;52.488;13.428;2024-01-16T11:20:00;100355.28;;;0.74;79.71
75420;BME280;63998;52.488;13.428;2024-01-16T11:22:26;100353.53;;;0.73;80.05
75420;BME280;63998;52.488;13.428;2024-01-16T11:25:12;100348.50;;;0.76;80.39
75420;BME280;63998;52.488;13.428;2024-01-16T11:27:40;100347.63;;;0.76;80.92
75420;BME280;63998;52.488;13.428;2024-01-16T11:30:06;100350.34;;;0.80;80.38
75420;BME280;63998;52.488;13.428;2024-01-16T11:32:33;100352.22;;;0.84;80.17
75420;BME280;63998;52.488;13.428;2024-01-16T11:34:59;100358.72;;;0.76;79.81
75420;BME280;63998;52.488;13.428;2024-01-16T11:37:29;100353.56;;;0.75;79.05
75420;BME280;63998;52.488;13.428;2024-01-16T11:42:42;100335.53;;;0.70;80.07
75420;BME280;63998;52.488;13.428;2024-01-16T11:48:13;100343.19;;;0.70;80.24
75420;BME280;63998;52.488;13.428;2024-01-16T11:50:39;100342.38;;;0.71;80.67
75420;BME280;63998;52.488;13.428;2024-01-16T11:53:05;100340.91;;;0.54;81.35
75420;BME280;63998;52.488;13.428;2024-01-16T11:55:35;100344.28;;;0.53;82.20
75420;BME280;63998;52.488;13.428;2024-01-16T11:58:43;100341.53;;;0.47;82.03
75420;BME280;63998;52.488;13.428;2024-01-16T12:01:10;100343.03;;;0.42;82.27
75420;BME280;63998;52.488;13.428;2024-01-16T12:03:37;100345.03;;;0.50;82.34
75420;BME280;63998;52.488;13.428;2024-01-16T12:06:02;100338.34;;;0.54;83.01
75420;BME280;63998;52.488;13.428;2024-01-16T12:08:31;100337.34;;;0.49;82.59
75420;BME280;63998;52.488;13.428;2024-01-16T12:10:56;100327.19;;;0.52;82.93
75420;BME280;63998;52.488;13.428;2024-01-16T12:13:22;100333.84;;;0.47;83.03
75420;BME280;63998;52.488;13.428;2024-01-16T12:15:48;100331.69;;;0.57;83.15
75420;BME280;63998;52.488;13.428;2024-01-16T12:18:19;100336.34;;;0.69;83.58
75420;BME280;63998;52.488;13.428;2024-01-16T12:20:44;100325.69;;;0.57;83.22
75420;BME280;63998;52.488;13.428;2024-01-16T12:23:10;100321.44;;;0.57;83.71
75420;BME280;63998;52.488;13.428;2024-01-16T12:25:37;100322.31;;;0.58;83.62
75420;BME280;63998;52.488;13.428;2024-01-16T12:28:07;100320.47;;;0.54;83.30
75420;BME280;63998;52.488;13.428;2024-01-16T12:30:37;100316.41;;;0.59;83.84
75420;BME280;63998;52.488;13.428;2024-01-16T12:35:39;100311.06;;;0.53;83.65
75420;BME280;63998;52.488;13.428;2024-01-16T12:38:07;100299.72;;;0.45;83.83
75420;BME280;63998;52.488;13.428;2024-01-16T12:40:35;100296.47;;;0.49;83.87
75420;BME280;63998;52.488;13.428;2024-01-16T12:43:02;100294.03;;;0.53;84.45
75420;BME280;63998;52.488;13.428;2024-01-16T12:45:28;100295.03;;;0.57;84.62
75420;BME280;63998;52.488;13.428;2024-01-16T12:47:54;100300.03;;;0.54;83.86